Time;durP1;ratioP1;P1;durP2;ratioP2;P2;SDS_P1;SDS_P2;PMS_P1;PMS_P2;Temp;Humidity;BMP_temperature;BMP_pressure;BME280_temperature;BME280_humidity;BME280_pressure;Samples;Min_cycle;Max_cycle;Signal;HPM_P1;HPM_P2
2024/04/14 00:01:34;;;;;;;13.50;11.07;;;;;;;;;;5489396;26;20311;-80
2024/04/14 00:04:05;;;;;;;18.23;12.50;;;;;;;;;;5488158;26;20700;-79
2024/04/14 00:06:31;;;;;;;21.43;14.97;;;;;;;;;;5487143;26;20887;-80
2024/04/14 00:09:00;;;;;;;22.93;15.60;;;;;;;;;;5488118;26;20302;-80
2024/04/14 00:11:27;;;;;;;22.40;15.80;;;;;;;;;;5489074;26;20219;-81
2024/04/14 00:13:55;;;;;;;24.10;16.07;;;;;;;;;;5488462;26;20290;-80
2024/04/14 00:16:22;;;;;;;22.20;14.37;;;;;;;;;;5488604;26;20219;-79
2024/04/14 00:18:50;;;;;;;24.17;13.73;;;;;;;;;;5489117;26;20303;-80
2024/04/14 00:21:21;;;;;;;18.43;13.73;;;;;;;;;;5488114;26;20799;-80
2024/04/14 00:23:50;;;;;;;18.07;13.00;;;;;;;;;;5485506;26;20767;-80
2024/04/14 00:26:17;;;;;;;17.77;13.17;;;;;;;;;;5489025;26;20226;-80
2024/04/14 00:28:46;;;;;;;20.07;13.77;;;;;;;;;;5488218;26;20234;-79
2024/04/14 00:31:12;;;;;;;15.17;12.50;;;;;;;;;;5487992;26;20231;-79
2024/04/14 00:33:41;;;;;;;19.53;12.33;;;;;;;;;;5487906;26;20753;-79
2024/04/14 00:36:08;;;;;;;18.77;11.70;;;;;;;;;;5488151;26;20223;-79
2024/04/14 00:38:40;;;;;;;16.83;11.43;;;;;;;;;;5488563;26;20347;-80
2024/04/14 00:41:06;;;;;;;14.53;10.33;;;;;;;;;;5487922;26;20234;-79
2024/04/14 00:43:35;;;;;;;15.20;9.63;;;;;;;;;;5487725;26;20607;-80
2024/04/14 00:46:02;;;;;;;16.60;8.77;;;;;;;;;;5487932;26;20616;-79
2024/04/14 00:48:31;;;;;;;12.77;7.87;;;;;;;;;;5487255;26;20231;-79
2024/04/14 00:50:58;;;;;;;14.70;8.40;;;;;;;;;;5487955;26;20219;-80
2024/04/14 00:53:27;;;;;;;11.10;7.97;;;;;;;;;;5487916;26;21217;-80
2024/04/14 00:55:56;;;;;;;11.70;7.53;;;;;;;;;;5487923;26;20274;-80
2024/04/14 00:58:25;;;;;;;15.17;7.73;;;;;;;;;;5487928;26;20235;-80
2024/04/14 01:00:51;;;;;;;10.23;6.90;;;;;;;;;;5487753;26;20569;-81
2024/04/14 01:03:20;;;;;;;11.10;7.33;;;;;;;;;;5487493;26;20227;-79
2024/04/14 01:05:46;;;;;;;11.57;7.47;;;;;;;;;;5488033;26;20281;-79
2024/04/14 01:08:15;;;;;;;11.03;6.93;;;;;;;;;;5487372;26;20231;-80
2024/04/14 01:10:43;;;;;;;12.00;7.07;;;;;;;;;;5487261;26;20227;-79
2024/04/14 01:13:14;;;;;;;11.60;6.83;;;;;;;;;;5488427;26;20720;-80
2024/04/14 01:15:40;;;;;;;13.27;7.77;;;;;;;;;;5487825;26;20755;-81
2024/04/14 01:18:10;;;;;;;10.93;7.50;;;;;;;;;;5486670;26;20269;-78
2024/04/14 01:20:36;;;;;;;11.90;7.67;;;;;;;;;;5486011;26;20264;-80
2024/04/14 01:23:05;;;;;;;11.70;7.20;;;;;;;;;;5487988;26;20231;-80
2024/04/14 01:25:34;;;;;;;11.43;7.57;;;;;;;;;;5487518;26;20227;-79
2024/04/14 01:28:03;;;;;;;12.33;8.30;;;;;;;;;;5487322;26;20227;-80
2024/04/14 01:30:29;;;;;;;12.87;7.83;;;;;;;;;;5487140;26;20223;-80
2024/04/14 01:32:58;;;;;;;12.93;7.80;;;;;;;;;;5487370;26;20299;-80
2024/04/14 01:35:24;;;;;;;12.20;6.47;;;;;;;;;;5487643;26;20223;-80
2024/04/14 01:37:53;;;;;;;9.43;5.10;;;;;;;;;;5487363;26;20235;-78
2024/04/14 01:40:19;;;;;;;8.10;4.93;;;;;;;;;;5487728;26;20239;-80
2024/04/14 01:42:51;;;;;;;11.13;5.63;;;;;;;;;;5487283;26;20883;-80
2024/04/14 01:45:17;;;;;;;7.83;5.10;;;;;;;;;;5486760;26;20227;-80
2024/04/14 01:47:46;;;;;;;3.67;2.93;;;;;;;;;;5486879;26;20289;-80
2024/04/14 01:50:12;;;;;;;3.73;2.50;;;;;;;;;;5486599;26;20762;-80
2024/04/14 01:52:41;;;;;;;3.23;2.27;;;;;;;;;;5487776;26;20234;-80
2024/04/14 01:55:07;;;;;;;3.80;2.20;;;;;;;;;;5486716;26;20270;-80
2024/04/14 01:57:36;;;;;;;4.67;2.53;;;;;;;;;;5486297;26;20230;-80
2024/04/14 02:00:08;;;;;;;3.03;2.23;;;;;;;;;;5486655;26;20286;-81
2024/04/14 02:02:37;;;;;;;3.53;2.63;;;;;;;;;;5486429;26;20852;-80
2024/04/14 02:05:03;;;;;;;4.93;2.50;;;;;;;;;;5486793;26;20598;-80
2024/04/14 02:07:32;;;;;;;3.27;2.37;;;;;;;;;;5486892;26;20298;-81
2024/04/14 02:10:01;;;;;;;2.40;1.93;;;;;;;;;;5486674;26;20219;-81
2024/04/14 02:12:30;;;;;;;1.90;1.60;;;;;;;;;;5486841;26;20226;-79
2024/04/14 02:14:56;;;;;;;3.27;1.57;;;;;;;;;;5486533;26;20230;-80
2024/04/14 02:17:28;;;;;;;2.50;1.53;;;;;;;;;;5479457;26;20247;-80
2024/04/14 02:19:54;;;;;;;2.47;1.80;;;;;;;;;;5466026;26;20270;-81
2024/04/14 02:22:23;;;;;;;2.70;1.30;;;;;;;;;;5450061;26;20228;-80
2024/04/14 02:24:49;;;;;;;1.93;1.30;;;;;;;;;;5450049;26;20224;-81
2024/04/14 02:27:18;;;;;;;2.60;1.37;;;;;;;;;;5449636;26;20232;-79
2024/04/14 02:29:44;;;;;;;2.13;1.50;;;;;;;;;;5450643;26;20759;-79
2024/04/14 02:32:13;;;;;;;2.47;1.67;;;;;;;;;;5452240;26;20332;-81
2024/04/14 02:34:43;;;;;;;3.30;1.50;;;;;;;;;;5453248;26;20275;-80
2024/04/14 02:37:12;;;;;;;1.87;1.40;;;;;;;;;;5453897;26;20271;-79
2024/04/14 02:39:38;;;;;;;4.47;1.50;;;;;;;;;;5453098;26;20228;-80
2024/04/14 02:42:07;;;;;;;1.97;1.37;;;;;;;;;;5453704;26;20278;-80
2024/04/14 02:44:33;;;;;;;3.73;1.30;;;;;;;;;;5452164;26;20267;-80
2024/04/14 02:47:02;;;;;;;1.90;1.33;;;;;;;;;;5453789;26;20228;-79
2024/04/14 02:49:29;;;;;;;2.70;1.50;;;;;;;;;;5453173;26;20224;-79
2024/04/14 02:52:00;;;;;;;3.50;1.50;;;;;;;;;;5452732;26;20240;-80
2024/04/14 02:54:26;;;;;;;2.23;1.53;;;;;;;;;;5453889;26;20270;-80
2024/04/14 02:56:55;;;;;;;3.93;1.67;;;;;;;;;;5452782;26;20236;-80
2024/04/14 02:59:21;;;;;;;2.83;1.73;;;;;;;;;;5452748;26;20272;-80
2024/04/14 03:01:50;;;;;;;2.63;1.97;;;;;;;;;;5453085;26;20925;-79
2024/04/14 03:04:16;;;;;;;3.20;2.20;;;;;;;;;;5453346;26;20227;-79
2024/04/14 03:06:45;;;;;;;4.53;2.47;;;;;;;;;;5453073;26;20585;-80
2024/04/14 03:09:14;;;;;;;4.80;2.20;;;;;;;;;;5452538;26;20224;-79
2024/04/14 03:11:43;;;;;;;3.93;2.30;;;;;;;;;;5453356;26;20604;-80
2024/04/14 03:14:10;;;;;;;4.27;2.13;;;;;;;;;;5471673;26;20228;-81
2024/04/14 03:16:38;;;;;;;5.80;2.33;;;;;;;;;;5489958;26;20232;-80
2024/04/14 03:19:05;;;;;;;4.77;2.87;;;;;;;;;;5489648;26;20227;-80
2024/04/14 03:21:33;;;;;;;4.60;2.53;;;;;;;;;;5489153;26;20227;-80
2024/04/14 03:24:00;;;;;;;7.23;3.13;;;;;;;;;;5489477;26;20269;-79
2024/04/14 03:26:31;;;;;;;7.00;3.20;;;;;;;;;;5488681;26;20231;-80
2024/04/14 03:28:57;;;;;;;5.13;2.90;;;;;;;;;;5489019;26;20219;-80
2024/04/14 03:31:26;;;;;;;6.20;2.80;;;;;;;;;;5488901;26;20491;-80
2024/04/14 03:33:52;;;;;;;5.43;2.90;;;;;;;;;;5488911;26;20223;-80
2024/04/14 03:36:21;;;;;;;6.00;3.40;;;;;;;;;;5489064;26;20230;-81
2024/04/14 03:38:50;;;;;;;8.57;3.57;;;;;;;;;;5489399;26;20223;-80
2024/04/14 03:41:19;;;;;;;5.13;3.30;;;;;;;;;;5488660;26;20269;-79
2024/04/14 03:43:51;;;;;;;5.13;2.77;;;;;;;;;;5486815;26;20782;-80
2024/04/14 03:46:19;;;;;;;4.90;3.40;;;;;;;;;;5489021;26;20257;-80
2024/04/14 03:48:48;;;;;;;7.10;3.03;;;;;;;;;;5488498;26;20292;-79
2024/04/14 03:51:14;;;;;;;5.87;3.03;;;;;;;;;;5488115;26;20235;-80
2024/04/14 03:53:43;;;;;;;5.10;2.63;;;;;;;;;;5488364;26;20242;-80
2024/04/14 03:56:10;;;;;;;4.50;2.97;;;;;;;;;;5488772;26;20420;-81
2024/04/14 03:58:38;;;;;;;4.50;2.77;;;;;;;;;;5487879;26;20642;-80
2024/04/14 04:01:07;;;;;;;8.13;3.10;;;;;;;;;;5488600;26;20223;-80
2024/04/14 04:03:36;;;;;;;7.57;3.10;;;;;;;;;;5489250;26;20343;-81
2024/04/14 04:06:03;;;;;;;6.90;3.33;;;;;;;;;;5488575;26;20223;-81
2024/04/14 04:08:32;;;;;;;6.10;2.57;;;;;;;;;;5488285;26;20239;-80
2024/04/14 04:10:58;;;;;;;4.77;2.57;;;;;;;;;;5488386;26;20224;-80
2024/04/14 04:13:27;;;;;;;5.50;2.70;;;;;;;;;;5488501;26;20239;-80
2024/04/14 04:15:54;;;;;;;4.53;2.73;;;;;;;;;;5488803;26;20303;-79
2024/04/14 04:18:26;;;;;;;4.80;2.40;;;;;;;;;;5487213;26;20262;-80
2024/04/14 04:20:53;;;;;;;5.40;2.27;;;;;;;;;;5488361;26;20790;-81
2024/04/14 04:23:22;;;;;;;4.03;2.47;;;;;;;;;;5488333;26;20228;-80
2024/04/14 04:25:48;;;;;;;5.23;2.43;;;;;;;;;;5488098;26;20278;-80
2024/04/14 04:28:17;;;;;;;6.80;2.60;;;;;;;;;;5487970;26;20278;-80
2024/04/14 04:30:43;;;;;;;4.63;2.40;;;;;;;;;;5489028;26;20278;-80
2024/04/14 04:33:12;;;;;;;4.83;2.07;;;;;;;;;;5487411;26;20566;-80
2024/04/14 04:35:41;;;;;;;6.33;2.57;;;;;;;;;;5488189;26;20232;-80
2024/04/14 04:38:09;;;;;;;5.10;2.77;;;;;;;;;;5488223;26;20239;-80
2024/04/14 04:40:36;;;;;;;5.53;2.40;;;;;;;;;;5487875;26;20239;-80
2024/04/14 04:43:05;;;;;;;5.23;2.70;;;;;;;;;;5488078;26;20231;-79
2024/04/14 04:45:31;;;;;;;6.37;2.80;;;;;;;;;;5488035;26;20232;-80
2024/04/14 04:48:00;;;;;;;5.07;2.40;;;;;;;;;;5487717;26;20231;-80
2024/04/14 04:50:26;;;;;;;6.67;2.90;;;;;;;;;;5488153;26;20223;-79
2024/04/14 04:52:58;;;;;;;6.87;2.80;;;;;;;;;;5488195;26;20282;-79
2024/04/14 04:55:25;;;;;;;5.67;3.10;;;;;;;;;;5487237;26;20270;-80
2024/04/14 04:57:54;;;;;;;6.43;2.93;;;;;;;;;;5487558;26;20304;-80
2024/04/14 05:00:20;;;;;;;7.67;3.10;;;;;;;;;;5488383;26;20223;-80
2024/04/14 05:02:49;;;;;;;7.43;3.27;;;;;;;;;;5487271;26;20336;-80
2024/04/14 05:05:16;;;;;;;8.07;2.80;;;;;;;;;;5487631;26;20258;-80
2024/04/14 05:07:44;;;;;;;7.23;3.10;;;;;;;;;;5487824;26;20551;-80
2024/04/14 05:10:13;;;;;;;5.50;2.83;;;;;;;;;;5487889;26;20486;-80
2024/04/14 05:12:42;;;;;;;4.90;3.30;;;;;;;;;;5487519;26;20230;-79
2024/04/14 05:15:08;;;;;;;7.57;3.20;;;;;;;;;;5487195;26;20572;-80
2024/04/14 05:17:37;;;;;;;5.47;3.40;;;;;;;;;;5486678;26;20227;-81
2024/04/14 05:20:04;;;;;;;8.13;3.07;;;;;;;;;;5487439;26;20223;-80
2024/04/14 05:22:32;;;;;;;4.87;3.03;;;;;;;;;;5487569;26;20295;-80
2024/04/14 05:24:59;;;;;;;7.50;3.13;;;;;;;;;;5486693;26;20269;-80
2024/04/14 05:27:30;;;;;;;5.60;2.93;;;;;;;;;;5487420;26;20728;-79
2024/04/14 05:29:56;;;;;;;4.10;3.30;;;;;;;;;;5486219;26;20274;-80
2024/04/14 05:32:25;;;;;;;5.13;2.63;;;;;;;;;;5487261;26;20274;-80
2024/04/14 05:34:52;;;;;;;6.93;2.57;;;;;;;;;;5486144;26;20223;-79
2024/04/14 05:37:20;;;;;;;6.83;2.53;;;;;;;;;;5487743;26;20624;-80
2024/04/14 05:39:49;;;;;;;5.47;2.60;;;;;;;;;;5486756;26;20247;-81
2024/04/14 05:42:15;;;;;;;6.37;2.10;;;;;;;;;;5486822;26;20617;-80
2024/04/14 05:44:49;;;;;;;5.53;2.13;;;;;;;;;;5487341;26;20622;-79
2024/04/14 05:47:15;;;;;;;4.53;2.20;;;;;;;;;;5486980;26;20227;-81
2024/04/14 05:49:44;;;;;;;4.77;1.90;;;;;;;;;;5487188;26;20331;-80
2024/04/14 05:52:11;;;;;;;8.50;2.03;;;;;;;;;;5486754;26;20219;-80
2024/04/14 05:54:39;;;;;;;5.87;2.13;;;;;;;;;;5486352;26;20227;-80
2024/04/14 05:57:06;;;;;;;6.57;1.80;;;;;;;;;;5487423;26;20219;-80
2024/04/14 05:59:35;;;;;;;5.17;1.80;;;;;;;;;;5486614;26;20759;-80
2024/04/14 06:02:04;;;;;;;5.03;1.83;;;;;;;;;;5487032;26;20818;-81
2024/04/14 06:04:33;;;;;;;4.10;1.90;;;;;;;;;;5487075;26;20261;-80
2024/04/14 06:06:59;;;;;;;4.23;1.60;;;;;;;;;;5486994;26;20222;-80
2024/04/14 06:09:28;;;;;;;6.40;2.00;;;;;;;;;;5485974;26;20277;-80
2024/04/14 06:11:54;;;;;;;4.60;1.80;;;;;;;;;;5486368;26;20564;-80
2024/04/14 06:14:24;;;;;;;6.27;1.70;;;;;;;;;;5486857;26;20794;-80
2024/04/14 06:16:50;;;;;;;6.00;1.90;;;;;;;;;;5486108;26;20261;-80
2024/04/14 06:19:22;;;;;;;6.00;2.00;;;;;;;;;;5486469;26;20294;-80
2024/04/14 06:21:48;;;;;;;4.93;1.87;;;;;;;;;;5486958;26;20277;-80
2024/04/14 06:24:17;;;;;;;5.03;1.70;;;;;;;;;;5485855;26;20291;-81
2024/04/14 06:26:43;;;;;;;3.57;1.50;;;;;;;;;;5486217;26;20223;-80
2024/04/14 06:29:12;;;;;;;5.77;1.80;;;;;;;;;;5486294;26;20295;-79
2024/04/14 06:31:38;;;;;;;5.43;1.77;;;;;;;;;;5486345;26;20265;-81
2024/04/14 06:34:07;;;;;;;4.93;1.50;;;;;;;;;;5486898;26;20273;-80
2024/04/14 06:36:36;;;;;;;4.00;1.57;;;;;;;;;;5486354;26;20274;-79
2024/04/14 06:39:05;;;;;;;4.63;1.53;;;;;;;;;;5486073;26;20277;-79
2024/04/14 06:41:31;;;;;;;5.97;1.73;;;;;;;;;;5486152;26;20223;-80
2024/04/14 06:44:00;;;;;;;6.33;1.60;;;;;;;;;;5486152;26;20223;-80
2024/04/14 06:46:26;;;;;;;6.00;1.70;;;;;;;;;;5485761;26;20273;-81
2024/04/14 06:48:55;;;;;;;4.57;1.47;;;;;;;;;;5484940;26;20223;-80
2024/04/14 06:51:21;;;;;;;5.87;1.50;;;;;;;;;;5485625;26;20227;-80
2024/04/14 06:53:52;;;;;;;4.10;1.40;;;;;;;;;;5485813;26;20269;-80
2024/04/14 06:56:18;;;;;;;4.23;1.50;;;;;;;;;;5485840;26;20219;-80
2024/04/14 06:58:47;;;;;;;6.67;2.03;;;;;;;;;;5485656;26;20283;-80
2024/04/14 07:01:14;;;;;;;3.03;1.40;;;;;;;;;;5485728;26;20582;-79
2024/04/14 07:03:42;;;;;;;7.23;2.10;;;;;;;;;;5486833;26;20266;-80
2024/04/14 07:06:09;;;;;;;4.57;1.40;;;;;;;;;;5485204;26;20850;-80
2024/04/14 07:08:39;;;;;;;5.57;1.63;;;;;;;;;;5485732;26;20239;-80
2024/04/14 07:11:10;;;;;;;3.40;1.50;;;;;;;;;;5485239;26;20262;-80
2024/04/14 07:13:36;;;;;;;5.50;1.67;;;;;;;;;;5485171;26;20236;-80
2024/04/14 07:16:05;;;;;;;2.83;1.40;;;;;;;;;;5485536;26;20630;-81
2024/04/14 07:18:31;;;;;;;5.17;1.67;;;;;;;;;;5488408;26;20659;-81
2024/04/14 07:21:04;;;;;;;3.17;1.50;;;;;;;;;;5489414;26;20779;-80
2024/04/14 07:23:31;;;;;;;4.70;1.50;;;;;;;;;;5489361;26;20254;-80
2024/04/14 07:26:00;;;;;;;5.80;1.40;;;;;;;;;;5489678;26;20223;-80
2024/04/14 07:28:29;;;;;;;4.10;1.77;;;;;;;;;;5489326;26;20223;-80
2024/04/14 07:30:58;;;;;;;4.57;1.57;;;;;;;;;;5489690;26;20274;-81
2024/04/14 07:33:24;;;;;;;4.30;1.37;;;;;;;;;;5489403;26;20606;-80
2024/04/14 07:35:53;;;;;;;5.53;1.60;;;;;;;;;;5489267;26;20290;-80
2024/04/14 07:38:19;;;;;;;3.60;1.50;;;;;;;;;;5489800;26;20634;-84
2024/04/14 07:40:48;;;;;;;4.30;1.30;;;;;;;;;;5489711;26;20332;-83
2024/04/14 07:43:14;;;;;;;3.43;1.40;;;;;;;;;;5489537;26;20607;-85
2024/04/14 07:45:46;;;;;;;3.67;1.23;;;;;;;;;;5484837;26;20634;-85
2024/04/14 07:48:12;;;;;;;3.83;0.90;;;;;;;;;;5478409;26;20274;-84
2024/04/14 07:50:45;;;;;;;5.55;1.20;;;;;;;;;;5486066;26;20663;-85
2024/04/14 07:53:11;;;;;;;3.55;1.10;;;;;;;;;;5459523;26;20282;-86
2024/04/14 07:55:41;;;;;;;3.55;1.13;;;;;;;;;;5483452;26;20754;-85
2024/04/14 07:58:07;;;;;;;3.45;1.05;;;;;;;;;;5489314;26;20231;-85
2024/04/14 08:00:36;;;;;;;3.33;1.08;;;;;;;;;;5488922;26;20238;-85
2024/04/14 08:03:05;;;;;;;4.88;1.33;;;;;;;;;;5490402;26;20278;-88
2024/04/14 08:05:34;;;;;;;3.28;1.30;;;;;;;;;;5488580;26;20271;-85
2024/04/14 08:08:00;;;;;;;6.82;1.30;;;;;;;;;;5094664;26;9999610;-85
2024/04/14 08:10:29;;;;;;;4.68;1.30;;;;;;;;;;5450823;26;20228;-86
2024/04/14 08:12:55;;;;;;;5.63;1.40;;;;;;;;;;5464369;26;20282;-86
2024/04/14 08:15:24;;;;;;;3.78;1.05;;;;;;;;;;5471369;26;20266;-84
2024/04/14 08:17:50;;;;;;;3.13;1.30;;;;;;;;;;5489121;26;20254;-85
2024/04/14 08:20:22;;;;;;;3.67;1.35;;;;;;;;;;5488169;26;20234;-84
2024/04/14 08:22:48;;;;;;;5.68;1.15;;;;;;;;;;5489041;26;20246;-85
2024/04/14 08:25:17;;;;;;;5.70;1.13;;;;;;;;;;5489498;26;20279;-84
2024/04/14 08:27:43;;;;;;;5.18;1.33;;;;;;;;;;5488699;26;20274;-84
2024/04/14 08:30:13;;;;;;;4.47;1.33;;;;;;;;;;5488745;26;20227;-84
2024/04/14 08:32:39;;;;;;;4.72;1.38;;;;;;;;;;5482195;26;20278;-84
2024/04/14 08:35:08;;;;;;;7.18;1.20;;;;;;;;;;5489409;26;20239;-85
2024/04/14 08:37:37;;;;;;;3.15;1.08;;;;;;;;;;5489276;26;20277;-86
2024/04/14 08:40:06;;;;;;;5.30;1.50;;;;;;;;;;5489261;26;20954;-85
2024/04/14 08:42:34;;;;;;;3.33;1.10;;;;;;;;;;5488979;26;20296;-85
2024/04/14 08:45:04;;;;;;;3.80;1.13;;;;;;;;;;5484995;26;20732;-86
2024/04/14 08:47:31;;;;;;;4.22;1.60;;;;;;;;;;5489145;26;20693;-85
2024/04/14 08:50:02;;;;;;;5.82;1.40;;;;;;;;;;5489822;26;20767;-86
2024/04/14 08:52:30;;;;;;;3.92;1.10;;;;;;;;;;5487791;26;20227;-87
2024/04/14 08:55:01;;;;;;;4.30;1.30;;;;;;;;;;5488274;26;20323;-87
2024/04/14 08:57:29;;;;;;;6.15;1.33;;;;;;;;;;5487904;26;20258;-86
2024/04/14 09:00:01;;;;;;;3.80;1.27;;;;;;;;;;5489663;26;20247;-85
2024/04/14 09:02:28;;;;;;;3.53;1.20;;;;;;;;;;5485850;26;20274;-86
2024/04/14 09:04:57;;;;;;;3.72;1.00;;;;;;;;;;5483141;26;20295;-86
2024/04/14 09:07:23;;;;;;;5.40;1.20;;;;;;;;;;5488274;26;20787;-85
2024/04/14 09:09:52;;;;;;;6.20;1.38;;;;;;;;;;5487681;26;20239;-85
2024/04/14 09:12:23;;;;;;;6.35;1.33;;;;;;;;;;5488425;26;20719;-84
2024/04/14 09:14:52;;;;;;;5.57;1.30;;;;;;;;;;5487590;26;20239;-85
2024/04/14 09:17:18;;;;;;;5.45;1.58;;;;;;;;;;5481343;26;20227;-87
2024/04/14 09:19:47;;;;;;;5.20;1.73;;;;;;;;;;5487660;26;20247;-86
2024/04/14 09:22:17;;;;;;;3.22;1.08;;;;;;;;;;5486686;26;20269;-86
2024/04/14 09:24:46;;;;;;;6.95;1.30;;;;;;;;;;5488164;26;20247;-86
2024/04/14 09:27:13;;;;;;;3.88;1.42;;;;;;;;;;5488446;26;20231;-85
2024/04/14 09:29:44;;;;;;;2.85;0.98;;;;;;;;;;5484963;26;20307;-86
2024/04/14 09:32:11;;;;;;;4.75;1.00;;;;;;;;;;5459509;26;20227;-87
2024/04/14 09:34:40;;;;;;;3.88;1.25;;;;;;;;;;5473651;26;20274;-86
2024/04/14 09:37:08;;;;;;;4.78;1.27;;;;;;;;;;5483426;26;20231;-86
2024/04/14 09:39:37;;;;;;;4.90;1.30;;;;;;;;;;5482363;26;20270;-87
2024/04/14 09:42:03;;;;;;;5.20;1.35;;;;;;;;;;5485009;26;20227;-86
2024/04/14 09:44:33;;;;;;;3.20;1.10;;;;;;;;;;5488024;26;20281;-89
2024/04/14 09:47:03;;;;;;;5.18;1.67;;;;;;;;;;5482874;26;20239;-86
2024/04/14 09:49:33;;;;;;;5.43;1.40;;;;;;;;;;5473285;26;20235;-86
2024/04/14 09:52:01;;;;;;;3.78;1.45;;;;;;;;;;5487605;26;20235;-87
2024/04/14 09:54:31;;;;;;;4.63;1.25;;;;;;;;;;5488422;26;20287;-85
2024/04/14 09:56:57;;;;;;;5.32;1.52;;;;;;;;;;5487792;26;20270;-86
2024/04/14 09:59:26;;;;;;;4.07;1.08;;;;;;;;;;5474876;26;20288;-87
2024/04/14 10:01:53;;;;;;;3.67;1.02;;;;;;;;;;5458644;26;20625;-88
2024/04/14 10:04:25;;;;;;;3.42;1.10;;;;;;;;;;5475529;26;20676;-88
2024/04/14 10:06:51;;;;;;;3.03;1.40;;;;;;;;;;5488319;26;20582;-87
2024/04/14 10:09:20;;;;;;;4.03;1.02;;;;;;;;;;5486932;26;20273;-87
2024/04/14 10:11:47;;;;;;;4.57;1.40;;;;;;;;;;5487582;26;20231;-87
2024/04/14 10:14:16;;;;;;;3.90;1.35;;;;;;;;;;5486954;26;20231;-87
2024/04/14 10:16:51;;;;;;;2.55;1.10;;;;;;;;;;5486747;26;20223;-84
2024/04/14 10:19:21;;;;;;;7.38;1.40;;;;;;;;;;5488244;26;20268;-88
2024/04/14 10:21:59;;;;;;;3.70;1.13;;;;;;;;;;5481733;26;20250;-88
2024/04/14 10:24:32;;;;;;;3.35;1.13;;;;;;;;;;5461074;26;20633;-88
2024/04/14 10:27:05;;;;;;;3.95;1.17;;;;;;;;;;5488138;26;20264;-89
2024/04/14 10:29:34;;;;;;;3.35;1.00;;;;;;;;;;5488776;26;20235;-85
2024/04/14 10:32:00;;;;;;;2.53;1.25;;;;;;;;;;5488017;26;20283;-86
2024/04/14 10:34:33;;;;;;;5.28;1.58;;;;;;;;;;5488152;26;20231;-87
2024/04/14 10:37:04;;;;;;;4.78;1.35;;;;;;;;;;5489479;26;20680;-89
2024/04/14 10:39:35;;;;;;;5.05;1.45;;;;;;;;;;5489893;26;20254;-90
2024/04/14 10:42:01;;;;;;;5.68;1.58;;;;;;;;;;5488660;26;20290;-90
2024/04/14 10:44:30;;;;;;;4.32;1.13;;;;;;;;;;5487668;26;20235;-90
2024/04/14 10:46:57;;;;;;;5.28;1.75;;;;;;;;;;5489567;26;20223;-89
2024/04/14 10:49:26;;;;;;;4.60;1.50;;;;;;;;;;5487934;26;20277;-89
2024/04/14 10:51:52;;;;;;;5.97;1.52;;;;;;;;;;5457489;26;20235;-84
2024/04/14 10:54:24;;;;;;;4.30;1.50;;;;;;;;;;5490253;26;20291;-89
2024/04/14 10:56:53;;;;;;;5.60;1.52;;;;;;;;;;5491280;26;20227;-88
2024/04/14 10:59:22;;;;;;;6.07;1.33;;;;;;;;;;5491516;26;20227;-87
2024/04/14 11:01:49;;;;;;;3.72;1.13;;;;;;;;;;5474912;26;20231;-87
2024/04/14 11:04:18;;;;;;;4.50;1.40;;;;;;;;;;5492968;26;20294;-87
2024/04/14 11:06:45;;;;;;;4.18;1.30;;;;;;;;;;5492090;26;20224;-89
2024/04/14 11:09:14;;;;;;;3.70;1.25;;;;;;;;;;5491503;26;20665;-90
2024/04/14 11:11:43;;;;;;;5.00;1.90;;;;;;;;;;5461301;26;20243;-87
2024/04/14 11:14:17;;;;;;;7.70;1.77;;;;;;;;;;5511815;26;20267;-87
2024/04/14 11:16:43;;;;;;;4.78;1.42;;;;;;;;;;5521319;26;20242;-88
2024/04/14 11:19:12;;;;;;;3.28;1.08;;;;;;;;;;5528575;25;20290;-89
2024/04/14 11:21:39;;;;;;;3.08;1.10;;;;;;;;;;5508515;26;20777;-90
2024/04/14 11:24:11;;;;;;;4.32;1.45;;;;;;;;;;5491385;26;20274;-89
2024/04/14 11:26:37;;;;;;;3.92;1.30;;;;;;;;;;5491469;26;20273;-89
2024/04/14 11:29:09;;;;;;;3.72;1.25;;;;;;;;;;5491706;26;20243;-88
2024/04/14 11:31:36;;;;;;;4.38;1.00;;;;;;;;;;5486914;26;20310;-88
2024/04/14 11:34:06;;;;;;;5.00;1.17;;;;;;;;;;5489922;26;20239;-86
2024/04/14 11:36:32;;;;;;;3.92;1.10;;;;;;;;;;5490430;26;20282;-88
2024/04/14 11:39:01;;;;;;;4.00;1.20;;;;;;;;;;5491042;26;20219;-89
2024/04/14 11:41:28;;;;;;;3.53;1.30;;;;;;;;;;5478318;26;20247;-86
2024/04/14 11:43:56;;;;;;;2.67;1.13;;;;;;;;;;5489379;26;20238;-88
2024/04/14 11:46:26;;;;;;;3.08;1.00;;;;;;;;;;5524490;25;20237;-87
2024/04/14 11:48:55;;;;;;;3.53;1.10;;;;;;;;;;5472535;26;20238;-90
2024/04/14 11:51:21;;;;;;;6.63;1.45;;;;;;;;;;5488907;26;20238;-87
2024/04/14 11:53:50;;;;;;;3.83;1.23;;;;;;;;;;5490349;26;20600;-88
2024/04/14 11:56:16;;;;;;;5.20;1.27;;;;;;;;;;5489481;26;20231;-87
2024/04/14 11:58:45;;;;;;;3.70;1.40;;;;;;;;;;5487626;26;20248;-85
2024/04/14 12:01:11;;;;;;;4.45;1.42;;;;;;;;;;5503015;26;20243;-86
2024/04/14 12:03:43;;;;;;;4.22;1.20;;;;;;;;;;5480647;26;20247;-86
2024/04/14 12:06:09;;;;;;;4.68;1.27;;;;;;;;;;5490867;26;20270;-91
2024/04/14 12:08:38;;;;;;;3.83;1.35;;;;;;;;;;5476606;26;20278;-88
2024/04/14 12:11:04;;;;;;;5.60;1.40;;;;;;;;;;5481722;26;20234;-88
2024/04/14 12:13:33;;;;;;;4.45;1.50;;;;;;;;;;5485023;26;20826;-85
2024/04/14 12:15:59;;;;;;;6.22;1.27;;;;;;;;;;5490967;26;20274;-89
2024/04/14 12:18:28;;;;;;;4.30;1.35;;;;;;;;;;5491310;26;20266;-88
2024/04/14 12:20:57;;;;;;;5.78;1.58;;;;;;;;;;5491199;26;20598;-88
2024/04/14 12:23:26;;;;;;;4.82;1.40;;;;;;;;;;5490393;26;20227;-86
2024/04/14 12:25:52;;;;;;;3.55;1.33;;;;;;;;;;5489942;26;20764;-87
2024/04/14 12:28:21;;;;;;;5.10;1.27;;;;;;;;;;5488743;26;20303;-81
2024/04/14 12:30:47;;;;;;;4.05;1.20;;;;;;;;;;5488282;26;20816;-82
2024/04/14 12:33:16;;;;;;;2.40;1.23;;;;;;;;;;5483724;26;20247;-85
2024/04/14 12:35:43;;;;;;;4.53;1.23;;;;;;;;;;5481448;26;20239;-86
2024/04/14 12:38:15;;;;;;;4.57;1.35;;;;;;;;;;5487729;26;20235;-85
2024/04/14 12:40:41;;;;;;;3.75;1.27;;;;;;;;;;5486015;26;20282;-84
2024/04/14 12:43:10;;;;;;;5.57;1.50;;;;;;;;;;5482191;26;20311;-85
2024/04/14 12:45:41;;;;;;;3.38;1.20;;;;;;;;;;5484977;26;20282;-84
2024/04/14 12:48:11;;;;;;;5.03;1.25;;;;;;;;;;5487742;26;20247;-84
2024/04/14 12:50:38;;;;;;;4.97;1.30;;;;;;;;;;5494258;26;20247;-85
2024/04/14 12:53:07;;;;;;;5.93;1.52;;;;;;;;;;5485982;26;20345;-85
2024/04/14 12:55:35;;;;;;;7.28;1.65;;;;;;;;;;5471886;26;20239;-84
2024/04/14 12:58:04;;;;;;;5.03;1.50;;;;;;;;;;5488188;26;20588;-85
2024/04/14 13:00:31;;;;;;;4.80;1.70;;;;;;;;;;5478186;26;20282;-85
2024/04/14 13:03:00;;;;;;;4.03;1.35;;;;;;;;;;5485370;26;20239;-86
2024/04/14 13:05:26;;;;;;;4.93;1.40;;;;;;;;;;5487855;26;20231;-85
2024/04/14 13:07:55;;;;;;;3.95;1.30;;;;;;;;;;5488817;26;20239;-85
2024/04/14 13:10:21;;;;;;;5.07;1.40;;;;;;;;;;5487456;26;20234;-83
2024/04/14 13:12:53;;;;;;;5.28;1.50;;;;;;;;;;5483771;26;20298;-81
2024/04/14 13:15:19;;;;;;;5.10;1.55;;;;;;;;;;5478718;26;20231;-82
2024/04/14 13:17:48;;;;;;;5.28;1.48;;;;;;;;;;5486285;26;20227;-83
2024/04/14 13:20:14;;;;;;;4.95;1.80;;;;;;;;;;5487449;26;20290;-84
2024/04/14 13:22:43;;;;;;;3.75;1.23;;;;;;;;;;5486567;26;20231;-83
2024/04/14 13:25:09;;;;;;;7.60;1.77;;;;;;;;;;5500029;26;20247;-83
2024/04/14 13:27:38;;;;;;;4.97;1.20;;;;;;;;;;5486342;26;20273;-83
2024/04/14 13:30:07;;;;;;;5.00;1.60;;;;;;;;;;5474419;26;20334;-83
2024/04/14 13:32:36;;;;;;;5.20;1.25;;;;;;;;;;5477123;26;20286;-85
2024/04/14 13:35:03;;;;;;;9.30;2.00;;;;;;;;;;5508112;26;20281;-86
2024/04/14 13:37:32;;;;;;;6.05;1.30;;;;;;;;;;5482437;26;20274;-84
2024/04/14 13:39:58;;;;;;;3.60;1.30;;;;;;;;;;5485999;26;20739;-82
2024/04/14 13:42:27;;;;;;;5.30;1.40;;;;;;;;;;5486704;26;20268;-83
2024/04/14 13:44:55;;;;;;;4.80;1.40;;;;;;;;;;5494490;26;20235;-85
2024/04/14 13:47:26;;;;;;;6.53;1.70;;;;;;;;;;5491208;26;20230;-85
2024/04/14 13:49:53;;;;;;;3.80;1.50;;;;;;;;;;5494123;25;20239;-83
2024/04/14 13:52:29;;;;;;;5.70;1.40;;;;;;;;;;5463020;26;20287;-86
2024/04/14 13:54:58;;;;;;;6.53;1.65;;;;;;;;;;5451980;26;20239;-85
2024/04/14 13:57:27;;;;;;;2.50;1.15;;;;;;;;;;5453473;26;20266;-84
2024/04/14 13:59:53;;;;;;;3.72;1.48;;;;;;;;;;5451860;26;20565;-84
2024/04/14 14:02:22;;;;;;;5.68;1.50;;;;;;;;;;5452240;26;20333;-83
2024/04/14 14:04:51;;;;;;;5.88;1.40;;;;;;;;;;5451789;26;20224;-87
2024/04/14 14:07:21;;;;;;;3.92;1.38;;;;;;;;;;5451073;26;20305;-86
2024/04/14 14:09:47;;;;;;;3.45;1.05;;;;;;;;;;5452334;26;20224;-87
2024/04/14 14:12:17;;;;;;;2.22;1.13;;;;;;;;;;5451387;26;20233;-86
2024/04/14 14:14:44;;;;;;;4.32;1.30;;;;;;;;;;5479210;26;20273;-86
2024/04/14 14:17:14;;;;;;;4.80;1.20;;;;;;;;;;5487659;26;20712;-86
2024/04/14 14:19:41;;;;;;;5.75;1.30;;;;;;;;;;5487985;26;20316;-86
2024/04/14 14:22:13;;;;;;;3.75;1.20;;;;;;;;;;5487456;26;20227;-85
2024/04/14 14:24:39;;;;;;;5.25;1.40;;;;;;;;;;5487353;26;20219;-85
2024/04/14 14:27:08;;;;;;;5.95;2.13;;;;;;;;;;5489085;26;20750;-85
2024/04/14 14:29:34;;;;;;;5.13;1.10;;;;;;;;;;5490822;26;20930;-86
2024/04/14 14:32:04;;;;;;;4.53;1.48;;;;;;;;;;5491154;26;20231;-85
2024/04/14 14:37:36;;;;;;;3.63;1.30;;;;;;;;;;5415674;26;20222;-85
2024/04/14 14:40:05;;;;;;;4.93;1.48;;;;;;;;;;5414927;26;20248;-84
2024/04/14 14:42:31;;;;;;;6.82;1.80;;;;;;;;;;5388093;26;20238;-85
2024/04/14 14:45:00;;;;;;;7.15;1.50;;;;;;;;;;5413025;26;20237;-86
2024/04/14 14:47:26;;;;;;;5.03;1.50;;;;;;;;;;5414742;26;21163;-85
2024/04/14 14:49:55;;;;;;;6.65;1.58;;;;;;;;;;5415329;26;20233;-86